sensor_id;sensor_type;location;lat;lon;timestamp;P1;durP1;ratioP1;P2;durP2;ratioP2
15383;SDS011;7790;53.022;12.968;2023-05-10T00:00:27;1.60;;;1.50;;
15383;SDS011;7790;53.022;12.968;2023-05-10T00:04:28;2.13;;;1.70;;
15383;SDS011;7790;53.022;12.968;2023-05-10T00:08:29;2.53;;;1.70;;
15383;SDS011;7790;53.022;12.968;2023-05-10T00:12:30;3.07;;;1.60;;
15383;SDS011;7790;53.022;12.968;2023-05-10T00:16:31;1.93;;;1.80;;
15383;SDS011;7790;53.022;12.968;2023-05-10T00:20:31;2.43;;;1.93;;
15383;SDS011;7790;53.022;12.968;2023-05-10T00:24:32;1.90;;;1.73;;
15383;SDS011;7790;53.022;12.968;2023-05-10T00:28:33;1.70;;;1.60;;
15383;SDS011;7790;53.022;12.968;2023-05-10T00:32:34;2.60;;;1.63;;
15383;SDS011;7790;53.022;12.968;2023-05-10T00:36:35;2.00;;;1.77;;
15383;SDS011;7790;53.022;12.968;2023-05-10T00:40:36;1.90;;;1.80;;
15383;SDS011;7790;53.022;12.968;2023-05-10T00:44:41;2.03;;;1.83;;
15383;SDS011;7790;53.022;12.968;2023-05-10T00:48:42;1.73;;;1.60;;
15383;SDS011;7790;53.022;12.968;2023-05-10T00:52:44;2.37;;;1.70;;
15383;SDS011;7790;53.022;12.968;2023-05-10T00:56:45;1.83;;;1.73;;
15383;SDS011;7790;53.022;12.968;2023-05-10T01:00:49;2.70;;;1.87;;
15383;SDS011;7790;53.022;12.968;2023-05-10T01:04:52;1.90;;;1.50;;
15383;SDS011;7790;53.022;12.968;2023-05-10T01:08:54;1.50;;;1.40;;
15383;SDS011;7790;53.022;12.968;2023-05-10T01:12:56;2.10;;;1.90;;
15383;SDS011;7790;53.022;12.968;2023-05-10T01:16:57;1.90;;;1.70;;
15383;SDS011;7790;53.022;12.968;2023-05-10T01:34:01;1.70;;;1.60;;
15383;SDS011;7790;53.022;12.968;2023-05-10T01:42:30;1.80;;;1.70;;
15383;SDS011;7790;53.022;12.968;2023-05-10T01:46:37;1.80;;;1.70;;
15383;SDS011;7790;53.022;12.968;2023-05-10T01:50:40;2.00;;;1.87;;
15383;SDS011;7790;53.022;12.968;2023-05-10T01:54:54;1.90;;;1.80;;
15383;SDS011;7790;53.022;12.968;2023-05-10T01:59:00;1.83;;;1.73;;
15383;SDS011;7790;53.022;12.968;2023-05-10T02:03:06;1.90;;;1.70;;
15383;SDS011;7790;53.022;12.968;2023-05-10T02:07:08;1.83;;;1.73;;
15383;SDS011;7790;53.022;12.968;2023-05-10T02:11:10;1.77;;;1.67;;
15383;SDS011;7790;53.022;12.968;2023-05-10T02:15:17;1.80;;;1.53;;
15383;SDS011;7790;53.022;12.968;2023-05-10T02:19:20;1.80;;;1.70;;
15383;SDS011;7790;53.022;12.968;2023-05-10T02:23:23;1.63;;;1.53;;
15383;SDS011;7790;53.022;12.968;2023-05-10T02:27:25;2.00;;;1.63;;
15383;SDS011;7790;53.022;12.968;2023-05-10T02:31:28;2.23;;;1.90;;
15383;SDS011;7790;53.022;12.968;2023-05-10T02:35:32;1.80;;;1.70;;
15383;SDS011;7790;53.022;12.968;2023-05-10T02:39:33;2.03;;;1.83;;
15383;SDS011;7790;53.022;12.968;2023-05-10T02:43:35;1.80;;;1.70;;
15383;SDS011;7790;53.022;12.968;2023-05-10T02:47:39;1.60;;;1.50;;
15383;SDS011;7790;53.022;12.968;2023-05-10T02:51:41;1.73;;;1.63;;
15383;SDS011;7790;53.022;12.968;2023-05-10T02:55:50;1.90;;;1.70;;
15383;SDS011;7790;53.022;12.968;2023-05-10T02:59:52;1.70;;;1.60;;
15383;SDS011;7790;53.022;12.968;2023-05-10T03:03:53;1.97;;;1.77;;
15383;SDS011;7790;53.022;12.968;2023-05-10T03:07:54;1.70;;;1.57;;
15383;SDS011;7790;53.022;12.968;2023-05-10T03:16:15;1.57;;;1.43;;
15383;SDS011;7790;53.022;12.968;2023-05-10T03:20:22;1.90;;;1.80;;
15383;SDS011;7790;53.022;12.968;2023-05-10T03:24:27;1.83;;;1.60;;
15383;SDS011;7790;53.022;12.968;2023-05-10T03:28:31;1.63;;;1.53;;
15383;SDS011;7790;53.022;12.968;2023-05-10T03:32:33;1.70;;;1.60;;
15383;SDS011;7790;53.022;12.968;2023-05-10T03:36:35;1.83;;;1.67;;
15383;SDS011;7790;53.022;12.968;2023-05-10T03:40:36;1.63;;;1.53;;
15383;SDS011;7790;53.022;12.968;2023-05-10T03:44:40;1.70;;;1.60;;
15383;SDS011;7790;53.022;12.968;2023-05-10T03:48:42;1.60;;;1.50;;
15383;SDS011;7790;53.022;12.968;2023-05-10T03:52:43;1.83;;;1.73;;
15383;SDS011;7790;53.022;12.968;2023-05-10T03:56:44;1.90;;;1.80;;
15383;SDS011;7790;53.022;12.968;2023-05-10T04:00:47;2.10;;;1.90;;
15383;SDS011;7790;53.022;12.968;2023-05-10T04:04:48;1.97;;;1.87;;
15383;SDS011;7790;53.022;12.968;2023-05-10T04:08:49;1.90;;;1.80;;
15383;SDS011;7790;53.022;12.968;2023-05-10T04:12:51;1.70;;;1.60;;
15383;SDS011;7790;53.022;12.968;2023-05-10T04:16:52;1.73;;;1.63;;
15383;SDS011;7790;53.022;12.968;2023-05-10T04:20:56;1.97;;;1.60;;
15383;SDS011;7790;53.022;12.968;2023-05-10T04:24:57;1.70;;;1.60;;
15383;SDS011;7790;53.022;12.968;2023-05-10T04:28:58;2.00;;;1.53;;
15383;SDS011;7790;53.022;12.968;2023-05-10T04:32:59;1.77;;;1.67;;
15383;SDS011;7790;53.022;12.968;2023-05-10T04:37:00;1.90;;;1.80;;
15383;SDS011;7790;53.022;12.968;2023-05-10T04:41:04;1.90;;;1.80;;
15383;SDS011;7790;53.022;12.968;2023-05-10T04:45:09;1.90;;;1.80;;
15383;SDS011;7790;53.022;12.968;2023-05-10T04:49:10;1.67;;;1.57;;
15383;SDS011;7790;53.022;12.968;2023-05-10T04:53:11;1.80;;;1.70;;
15383;SDS011;7790;53.022;12.968;2023-05-10T04:57:12;1.80;;;1.70;;
15383;SDS011;7790;53.022;12.968;2023-05-10T05:01:13;1.97;;;1.77;;
15383;SDS011;7790;53.022;12.968;2023-05-10T05:05:14;2.10;;;2.00;;
15383;SDS011;7790;53.022;12.968;2023-05-10T05:09:15;2.00;;;1.90;;
15383;SDS011;7790;53.022;12.968;2023-05-10T05:13:16;2.03;;;1.80;;
15383;SDS011;7790;53.022;12.968;2023-05-10T05:17:17;1.87;;;1.43;;
15383;SDS011;7790;53.022;12.968;2023-05-10T05:21:18;2.03;;;1.83;;
15383;SDS011;7790;53.022;12.968;2023-05-10T05:25:20;1.80;;;1.70;;
15383;SDS011;7790;53.022;12.968;2023-05-10T05:29:20;1.90;;;1.80;;
15383;SDS011;7790;53.022;12.968;2023-05-10T05:33:21;1.90;;;1.80;;
15383;SDS011;7790;53.022;12.968;2023-05-10T05:37:22;2.03;;;1.90;;
15383;SDS011;7790;53.022;12.968;2023-05-10T05:41:24;2.03;;;1.70;;
15383;SDS011;7790;53.022;12.968;2023-05-10T05:45:25;1.60;;;1.50;;
15383;SDS011;7790;53.022;12.968;2023-05-10T05:49:26;1.73;;;1.63;;
15383;SDS011;7790;53.022;12.968;2023-05-10T05:53:27;2.20;;;1.87;;
15383;SDS011;7790;53.022;12.968;2023-05-10T05:57:28;1.73;;;1.60;;
15383;SDS011;7790;53.022;12.968;2023-05-10T06:01:28;1.70;;;1.60;;
15383;SDS011;7790;53.022;12.968;2023-05-10T06:05:29;1.70;;;1.60;;
15383;SDS011;7790;53.022;12.968;2023-05-10T06:09:30;2.57;;;2.37;;
15383;SDS011;7790;53.022;12.968;2023-05-10T06:13:31;2.13;;;2.00;;
15383;SDS011;7790;53.022;12.968;2023-05-10T06:17:33;2.80;;;1.83;;
15383;SDS011;7790;53.022;12.968;2023-05-10T06:21:34;1.80;;;1.70;;
15383;SDS011;7790;53.022;12.968;2023-05-10T06:25:35;4.77;;;3.00;;
15383;SDS011;7790;53.022;12.968;2023-05-10T06:29:35;3.20;;;2.90;;
15383;SDS011;7790;53.022;12.968;2023-05-10T06:33:36;2.97;;;2.70;;
15383;SDS011;7790;53.022;12.968;2023-05-10T06:37:37;4.00;;;2.93;;
15383;SDS011;7790;53.022;12.968;2023-05-10T06:41:38;3.73;;;2.97;;
15383;SDS011;7790;53.022;12.968;2023-05-10T06:45:39;4.63;;;2.80;;
15383;SDS011;7790;53.022;12.968;2023-05-10T06:49:41;3.87;;;2.77;;
15383;SDS011;7790;53.022;12.968;2023-05-10T06:53:41;4.00;;;2.73;;
15383;SDS011;7790;53.022;12.968;2023-05-10T06:57:42;6.37;;;2.90;;
15383;SDS011;7790;53.022;12.968;2023-05-10T07:01:43;4.47;;;2.57;;
15383;SDS011;7790;53.022;12.968;2023-05-10T07:05:44;3.20;;;2.43;;
15383;SDS011;7790;53.022;12.968;2023-05-10T07:09:45;3.03;;;2.40;;
15383;SDS011;7790;53.022;12.968;2023-05-10T07:13:46;2.90;;;2.57;;
15383;SDS011;7790;53.022;12.968;2023-05-10T07:17:47;3.37;;;2.53;;
15383;SDS011;7790;53.022;12.968;2023-05-10T07:21:47;4.57;;;2.40;;
15383;SDS011;7790;53.022;12.968;2023-05-10T07:25:49;2.67;;;2.47;;
15383;SDS011;7790;53.022;12.968;2023-05-10T07:29:52;3.17;;;2.17;;
15383;SDS011;7790;53.022;12.968;2023-05-10T07:33:53;3.97;;;2.77;;
15383;SDS011;7790;53.022;12.968;2023-05-10T07:37:54;3.40;;;2.20;;
15383;SDS011;7790;53.022;12.968;2023-05-10T07:41:54;3.10;;;2.30;;
15383;SDS011;7790;53.022;12.968;2023-05-10T07:45:55;4.37;;;2.60;;
15383;SDS011;7790;53.022;12.968;2023-05-10T07:49:57;2.97;;;2.60;;
15383;SDS011;7790;53.022;12.968;2023-05-10T07:53:58;2.63;;;2.33;;
15383;SDS011;7790;53.022;12.968;2023-05-10T07:57:59;4.37;;;2.70;;
15383;SDS011;7790;53.022;12.968;2023-05-10T08:02:01;4.00;;;2.17;;
15383;SDS011;7790;53.022;12.968;2023-05-10T08:06:02;2.57;;;2.37;;
15383;SDS011;7790;53.022;12.968;2023-05-10T08:10:04;2.50;;;2.30;;
15383;SDS011;7790;53.022;12.968;2023-05-10T08:14:05;2.53;;;2.33;;
15383;SDS011;7790;53.022;12.968;2023-05-10T08:18:06;2.63;;;2.33;;
15383;SDS011;7790;53.022;12.968;2023-05-10T08:22:07;4.97;;;2.60;;
15383;SDS011;7790;53.022;12.968;2023-05-10T08:26:07;4.93;;;2.60;;
15383;SDS011;7790;53.022;12.968;2023-05-10T08:30:09;4.30;;;2.60;;
15383;SDS011;7790;53.022;12.968;2023-05-10T08:34:10;3.23;;;2.63;;
15383;SDS011;7790;53.022;12.968;2023-05-10T08:38:11;2.40;;;2.20;;
15383;SDS011;7790;53.022;12.968;2023-05-10T08:42:13;2.63;;;2.33;;
15383;SDS011;7790;53.022;12.968;2023-05-10T08:46:19;3.90;;;2.60;;
15383;SDS011;7790;53.022;12.968;2023-05-10T08:50:21;3.03;;;2.37;;
15383;SDS011;7790;53.022;12.968;2023-05-10T08:54:22;3.00;;;2.47;;
15383;SDS011;7790;53.022;12.968;2023-05-10T08:58:25;2.63;;;2.20;;
15383;SDS011;7790;53.022;12.968;2023-05-10T09:02:26;4.73;;;2.50;;
15383;SDS011;7790;53.022;12.968;2023-05-10T09:06:27;4.50;;;2.33;;
15383;SDS011;7790;53.022;12.968;2023-05-10T09:10:29;3.23;;;2.70;;
15383;SDS011;7790;53.022;12.968;2023-05-10T09:14:31;2.90;;;2.40;;
15383;SDS011;7790;53.022;12.968;2023-05-10T09:18:34;3.63;;;2.70;;
15383;SDS011;7790;53.022;12.968;2023-05-10T09:22:35;5.27;;;2.37;;
15383;SDS011;7790;53.022;12.968;2023-05-10T09:26:39;2.53;;;2.30;;
15383;SDS011;7790;53.022;12.968;2023-05-10T09:30:52;3.23;;;2.60;;
15383;SDS011;7790;53.022;12.968;2023-05-10T09:34:53;2.43;;;2.23;;
15383;SDS011;7790;53.022;12.968;2023-05-10T09:38:54;2.63;;;2.40;;
15383;SDS011;7790;53.022;12.968;2023-05-10T09:47:07;2.40;;;2.20;;
15383;SDS011;7790;53.022;12.968;2023-05-10T09:51:08;3.13;;;2.20;;
15383;SDS011;7790;53.022;12.968;2023-05-10T09:55:09;6.87;;;2.53;;
15383;SDS011;7790;53.022;12.968;2023-05-10T09:59:11;3.30;;;2.37;;
15383;SDS011;7790;53.022;12.968;2023-05-10T10:03:13;3.73;;;2.30;;
15383;SDS011;7790;53.022;12.968;2023-05-10T10:07:17;3.47;;;2.17;;
15383;SDS011;7790;53.022;12.968;2023-05-10T10:11:24;3.03;;;2.53;;
15383;SDS011;7790;53.022;12.968;2023-05-10T10:15:25;2.80;;;2.30;;
15383;SDS011;7790;53.022;12.968;2023-05-10T10:19:26;3.23;;;2.33;;
15383;SDS011;7790;53.022;12.968;2023-05-10T10:23:27;3.13;;;2.30;;
15383;SDS011;7790;53.022;12.968;2023-05-10T10:31:50;3.13;;;2.20;;
15383;SDS011;7790;53.022;12.968;2023-05-10T10:36:09;3.10;;;2.30;;
15383;SDS011;7790;53.022;12.968;2023-05-10T10:40:32;2.43;;;2.23;;
15383;SDS011;7790;53.022;12.968;2023-05-10T10:44:35;3.10;;;2.20;;
15383;SDS011;7790;53.022;12.968;2023-05-10T10:48:38;2.57;;;2.10;;
15383;SDS011;7790;53.022;12.968;2023-05-10T10:52:40;4.20;;;2.30;;
15383;SDS011;7790;53.022;12.968;2023-05-10T10:56:41;4.13;;;2.20;;
15383;SDS011;7790;53.022;12.968;2023-05-10T11:00:45;4.60;;;2.27;;
15383;SDS011;7790;53.022;12.968;2023-05-10T11:04:45;5.93;;;2.20;;
15383;SDS011;7790;53.022;12.968;2023-05-10T11:08:46;5.17;;;2.20;;
15383;SDS011;7790;53.022;12.968;2023-05-10T11:13:00;10.93;;;2.50;;
15383;SDS011;7790;53.022;12.968;2023-05-10T11:17:02;2.57;;;2.00;;
15383;SDS011;7790;53.022;12.968;2023-05-10T11:21:27;3.83;;;1.73;;
15383;SDS011;7790;53.022;12.968;2023-05-10T11:25:29;3.13;;;1.90;;
15383;SDS011;7790;53.022;12.968;2023-05-10T11:29:29;4.87;;;1.80;;
15383;SDS011;7790;53.022;12.968;2023-05-10T11:33:30;3.63;;;1.80;;
15383;SDS011;7790;53.022;12.968;2023-05-10T11:37:42;4.67;;;1.83;;
15383;SDS011;7790;53.022;12.968;2023-05-10T11:41:44;2.77;;;2.20;;
15383;SDS011;7790;53.022;12.968;2023-05-10T11:45:48;3.13;;;1.70;;
15383;SDS011;7790;53.022;12.968;2023-05-10T11:49:50;2.80;;;1.87;;
15383;SDS011;7790;53.022;12.968;2023-05-10T11:53:55;4.10;;;2.20;;
15383;SDS011;7790;53.022;12.968;2023-05-10T11:58:00;14.30;;;2.57;;
15383;SDS011;7790;53.022;12.968;2023-05-10T12:02:02;4.27;;;2.37;;
15383;SDS011;7790;53.022;12.968;2023-05-10T12:06:03;7.57;;;2.00;;
15383;SDS011;7790;53.022;12.968;2023-05-10T12:10:13;5.67;;;2.33;;
15383;SDS011;7790;53.022;12.968;2023-05-10T12:14:15;4.07;;;2.10;;
15383;SDS011;7790;53.022;12.968;2023-05-10T12:18:22;4.17;;;1.97;;
15383;SDS011;7790;53.022;12.968;2023-05-10T12:22:26;2.17;;;1.80;;
15383;SDS011;7790;53.022;12.968;2023-05-10T12:26:28;6.63;;;2.40;;
15383;SDS011;7790;53.022;12.968;2023-05-10T12:30:30;2.53;;;2.00;;
15383;SDS011;7790;53.022;12.968;2023-05-10T12:34:33;4.97;;;2.00;;
15383;SDS011;7790;53.022;12.968;2023-05-10T12:38:37;3.03;;;1.70;;
15383;SDS011;7790;53.022;12.968;2023-05-10T12:42:39;3.27;;;2.10;;
15383;SDS011;7790;53.022;12.968;2023-05-10T12:46:40;2.47;;;1.70;;
15383;SDS011;7790;53.022;12.968;2023-05-10T12:50:41;4.57;;;1.90;;
15383;SDS011;7790;53.022;12.968;2023-05-10T12:54:42;2.53;;;1.77;;
15383;SDS011;7790;53.022;12.968;2023-05-10T12:58:42;2.10;;;1.87;;
15383;SDS011;7790;53.022;12.968;2023-05-10T13:02:48;4.43;;;2.20;;
15383;SDS011;7790;53.022;12.968;2023-05-10T13:06:49;3.23;;;1.70;;
15383;SDS011;7790;53.022;12.968;2023-05-10T13:10:49;2.13;;;1.90;;
15383;SDS011;7790;53.022;12.968;2023-05-10T13:14:51;3.93;;;1.60;;
15383;SDS011;7790;53.022;12.968;2023-05-10T13:18:52;2.27;;;1.60;;
15383;SDS011;7790;53.022;12.968;2023-05-10T13:22:53;3.67;;;1.90;;
15383;SDS011;7790;53.022;12.968;2023-05-10T13:26:54;3.17;;;1.60;;
15383;SDS011;7790;53.022;12.968;2023-05-10T13:30:55;2.50;;;1.30;;
15383;SDS011;7790;53.022;12.968;2023-05-10T13:34:56;2.77;;;1.80;;
15383;SDS011;7790;53.022;12.968;2023-05-10T13:38:57;4.00;;;1.60;;
15383;SDS011;7790;53.022;12.968;2023-05-10T13:42:58;2.13;;;1.60;;
15383;SDS011;7790;53.022;12.968;2023-05-10T13:46:59;3.13;;;1.67;;
15383;SDS011;7790;53.022;12.968;2023-05-10T13:51:00;3.13;;;1.70;;
15383;SDS011;7790;53.022;12.968;2023-05-10T13:55:00;1.80;;;1.60;;
15383;SDS011;7790;53.022;12.968;2023-05-10T13:59:01;3.00;;;1.57;;
15383;SDS011;7790;53.022;12.968;2023-05-10T14:03:02;1.90;;;1.50;;
15383;SDS011;7790;53.022;12.968;2023-05-10T14:07:05;2.80;;;1.57;;
15383;SDS011;7790;53.022;12.968;2023-05-10T14:11:06;1.83;;;1.60;;
15383;SDS011;7790;53.022;12.968;2023-05-10T14:15:08;1.40;;;1.30;;
15383;SDS011;7790;53.022;12.968;2023-05-10T14:19:11;1.80;;;1.70;;
15383;SDS011;7790;53.022;12.968;2023-05-10T14:23:12;2.20;;;1.70;;
15383;SDS011;7790;53.022;12.968;2023-05-10T14:27:13;2.17;;;1.60;;
15383;SDS011;7790;53.022;12.968;2023-05-10T14:31:14;2.30;;;1.70;;
15383;SDS011;7790;53.022;12.968;2023-05-10T14:35:17;2.43;;;1.40;;
15383;SDS011;7790;53.022;12.968;2023-05-10T14:39:17;2.00;;;1.50;;
15383;SDS011;7790;53.022;12.968;2023-05-10T14:43:18;2.07;;;1.50;;
15383;SDS011;7790;53.022;12.968;2023-05-10T14:47:19;2.13;;;1.50;;
15383;SDS011;7790;53.022;12.968;2023-05-10T14:51:20;2.20;;;1.50;;
15383;SDS011;7790;53.022;12.968;2023-05-10T14:55:22;2.27;;;1.63;;
15383;SDS011;7790;53.022;12.968;2023-05-10T14:59:22;1.60;;;1.50;;
15383;SDS011;7790;53.022;12.968;2023-05-10T15:03:24;1.80;;;1.70;;
15383;SDS011;7790;53.022;12.968;2023-05-10T15:07:25;1.60;;;1.50;;
15383;SDS011;7790;53.022;12.968;2023-05-10T15:11:26;1.60;;;1.50;;
15383;SDS011;7790;53.022;12.968;2023-05-10T15:15:27;1.70;;;1.60;;
15383;SDS011;7790;53.022;12.968;2023-05-10T15:19:28;2.40;;;1.50;;
15383;SDS011;7790;53.022;12.968;2023-05-10T15:23:29;2.23;;;1.70;;
15383;SDS011;7790;53.022;12.968;2023-05-10T15:27:30;1.73;;;1.43;;
15383;SDS011;7790;53.022;12.968;2023-05-10T15:31:31;1.67;;;1.57;;
15383;SDS011;7790;53.022;12.968;2023-05-10T15:35:35;1.33;;;1.23;;
15383;SDS011;7790;53.022;12.968;2023-05-10T15:39:38;1.70;;;1.60;;
15383;SDS011;7790;53.022;12.968;2023-05-10T15:43:40;1.40;;;1.30;;
15383;SDS011;7790;53.022;12.968;2023-05-10T15:47:41;1.63;;;1.20;;
15383;SDS011;7790;53.022;12.968;2023-05-10T15:51:42;1.57;;;1.47;;
15383;SDS011;7790;53.022;12.968;2023-05-10T15:55:43;1.70;;;1.60;;
15383;SDS011;7790;53.022;12.968;2023-05-10T15:59:44;1.93;;;1.60;;
15383;SDS011;7790;53.022;12.968;2023-05-10T16:03:48;1.73;;;1.63;;
15383;SDS011;7790;53.022;12.968;2023-05-10T16:07:49;2.13;;;1.40;;
15383;SDS011;7790;53.022;12.968;2023-05-10T16:11:49;1.30;;;1.20;;
15383;SDS011;7790;53.022;12.968;2023-05-10T16:15:50;1.90;;;1.50;;
15383;SDS011;7790;53.022;12.968;2023-05-10T16:19:53;1.40;;;1.30;;
15383;SDS011;7790;53.022;12.968;2023-05-10T16:23:54;1.47;;;1.30;;
15383;SDS011;7790;53.022;12.968;2023-05-10T16:27:54;1.63;;;1.53;;
15383;SDS011;7790;53.022;12.968;2023-05-10T16:31:55;3.47;;;1.63;;
15383;SDS011;7790;53.022;12.968;2023-05-10T16:35:56;1.50;;;1.40;;
15383;SDS011;7790;53.022;12.968;2023-05-10T16:39:57;1.43;;;1.33;;
15383;SDS011;7790;53.022;12.968;2023-05-10T16:43:58;1.23;;;1.20;;
15383;SDS011;7790;53.022;12.968;2023-05-10T16:47:59;1.40;;;1.30;;
15383;SDS011;7790;53.022;12.968;2023-05-10T16:52:00;1.50;;;1.40;;
15383;SDS011;7790;53.022;12.968;2023-05-10T16:56:02;1.40;;;1.30;;
15383;SDS011;7790;53.022;12.968;2023-05-10T17:00:03;1.27;;;1.20;;
15383;SDS011;7790;53.022;12.968;2023-05-10T17:04:05;1.50;;;1.40;;
15383;SDS011;7790;53.022;12.968;2023-05-10T17:08:06;1.40;;;1.30;;
15383;SDS011;7790;53.022;12.968;2023-05-10T17:12:08;1.30;;;1.20;;
15383;SDS011;7790;53.022;12.968;2023-05-10T17:16:09;1.97;;;1.13;;
15383;SDS011;7790;53.022;12.968;2023-05-10T17:20:10;1.40;;;1.30;;
15383;SDS011;7790;53.022;12.968;2023-05-10T17:24:11;1.63;;;1.40;;
15383;SDS011;7790;53.022;12.968;2023-05-10T17:28:12;1.50;;;1.40;;
15383;SDS011;7790;53.022;12.968;2023-05-10T17:32:13;1.60;;;1.50;;
15383;SDS011;7790;53.022;12.968;2023-05-10T17:36:14;1.60;;;1.50;;
15383;SDS011;7790;53.022;12.968;2023-05-10T17:40:15;1.30;;;1.20;;
15383;SDS011;7790;53.022;12.968;2023-05-10T17:44:16;1.93;;;1.37;;
15383;SDS011;7790;53.022;12.968;2023-05-10T17:48:17;3.40;;;1.63;;
15383;SDS011;7790;53.022;12.968;2023-05-10T17:52:18;1.40;;;1.30;;
15383;SDS011;7790;53.022;12.968;2023-05-10T17:56:18;2.30;;;1.20;;
15383;SDS011;7790;53.022;12.968;2023-05-10T18:00:21;3.73;;;1.30;;
15383;SDS011;7790;53.022;12.968;2023-05-10T18:04:22;1.77;;;1.30;;
15383;SDS011;7790;53.022;12.968;2023-05-10T18:08:23;1.60;;;1.47;;
15383;SDS011;7790;53.022;12.968;2023-05-10T18:12:26;2.30;;;1.50;;
15383;SDS011;7790;53.022;12.968;2023-05-10T18:16:27;2.10;;;1.40;;
15383;SDS011;7790;53.022;12.968;2023-05-10T18:20:28;3.10;;;1.60;;
15383;SDS011;7790;53.022;12.968;2023-05-10T18:24:29;2.00;;;1.10;;
15383;SDS011;7790;53.022;12.968;2023-05-10T18:28:30;1.63;;;1.53;;
15383;SDS011;7790;53.022;12.968;2023-05-10T18:32:31;1.50;;;1.40;;
15383;SDS011;7790;53.022;12.968;2023-05-10T18:36:32;1.30;;;1.20;;
15383;SDS011;7790;53.022;12.968;2023-05-10T18:40:33;6.53;;;2.00;;
15383;SDS011;7790;53.022;12.968;2023-05-10T18:44:35;4.63;;;1.77;;
15383;SDS011;7790;53.022;12.968;2023-05-10T18:48:35;4.90;;;1.83;;
15383;SDS011;7790;53.022;12.968;2023-05-10T18:52:37;2.20;;;1.57;;
15383;SDS011;7790;53.022;12.968;2023-05-10T18:56:38;2.67;;;1.73;;
15383;SDS011;7790;53.022;12.968;2023-05-10T19:00:43;2.33;;;1.40;;
15383;SDS011;7790;53.022;12.968;2023-05-10T19:04:44;2.27;;;1.60;;
15383;SDS011;7790;53.022;12.968;2023-05-10T19:08:45;3.17;;;1.77;;
15383;SDS011;7790;53.022;12.968;2023-05-10T19:12:46;4.13;;;1.77;;
15383;SDS011;7790;53.022;12.968;2023-05-10T19:16:47;2.90;;;1.60;;
15383;SDS011;7790;53.022;12.968;2023-05-10T19:20:48;2.43;;;1.70;;
15383;SDS011;7790;53.022;12.968;2023-05-10T19:24:49;4.30;;;1.70;;
15383;SDS011;7790;53.022;12.968;2023-05-10T19:28:50;4.03;;;1.60;;
15383;SDS011;7790;53.022;12.968;2023-05-10T19:32:51;3.20;;;2.00;;
15383;SDS011;7790;53.022;12.968;2023-05-10T19:36:52;1.97;;;1.77;;
15383;SDS011;7790;53.022;12.968;2023-05-10T19:40:54;2.47;;;1.80;;
15383;SDS011;7790;53.022;12.968;2023-05-10T19:44:58;2.97;;;1.80;;
15383;SDS011;7790;53.022;12.968;2023-05-10T19:48:59;2.10;;;1.90;;
15383;SDS011;7790;53.022;12.968;2023-05-10T19:53:00;2.60;;;1.73;;
15383;SDS011;7790;53.022;12.968;2023-05-10T19:57:00;2.00;;;1.80;;
15383;SDS011;7790;53.022;12.968;2023-05-10T20:01:01;2.20;;;1.90;;
15383;SDS011;7790;53.022;12.968;2023-05-10T20:05:05;2.37;;;1.80;;
15383;SDS011;7790;53.022;12.968;2023-05-10T20:09:06;2.23;;;1.80;;
15383;SDS011;7790;53.022;12.968;2023-05-10T20:13:07;1.77;;;1.60;;
15383;SDS011;7790;53.022;12.968;2023-05-10T20:17:08;2.33;;;1.90;;
15383;SDS011;7790;53.022;12.968;2023-05-10T20:21:09;2.47;;;1.70;;
15383;SDS011;7790;53.022;12.968;2023-05-10T20:25:10;2.20;;;1.90;;
15383;SDS011;7790;53.022;12.968;2023-05-10T20:29:11;2.20;;;1.63;;
15383;SDS011;7790;53.022;12.968;2023-05-10T20:33:12;1.70;;;1.60;;
15383;SDS011;7790;53.022;12.968;2023-05-10T20:37:14;2.73;;;1.80;;
15383;SDS011;7790;53.022;12.968;2023-05-10T20:41:16;2.67;;;1.90;;
15383;SDS011;7790;53.022;12.968;2023-05-10T20:45:17;2.10;;;2.00;;
15383;SDS011;7790;53.022;12.968;2023-05-10T20:49:19;7.60;;;1.77;;
15383;SDS011;7790;53.022;12.968;2023-05-10T20:53:20;2.63;;;1.90;;
15383;SDS011;7790;53.022;12.968;2023-05-10T20:57:20;4.10;;;1.90;;
15383;SDS011;7790;53.022;12.968;2023-05-10T21:01:21;1.90;;;1.77;;
15383;SDS011;7790;53.022;12.968;2023-05-10T21:05:22;2.13;;;1.97;;
15383;SDS011;7790;53.022;12.968;2023-05-10T21:09:24;2.00;;;1.90;;
15383;SDS011;7790;53.022;12.968;2023-05-10T21:13:25;1.83;;;1.73;;
15383;SDS011;7790;53.022;12.968;2023-05-10T21:17:26;2.00;;;1.90;;
15383;SDS011;7790;53.022;12.968;2023-05-10T21:21:26;2.00;;;1.90;;
15383;SDS011;7790;53.022;12.968;2023-05-10T21:25:27;2.13;;;1.93;;
15383;SDS011;7790;53.022;12.968;2023-05-10T21:29:28;1.90;;;1.80;;
15383;SDS011;7790;53.022;12.968;2023-05-10T21:33:29;2.53;;;2.20;;
15383;SDS011;7790;53.022;12.968;2023-05-10T21:37:33;2.00;;;1.90;;
15383;SDS011;7790;53.022;12.968;2023-05-10T21:41:35;2.13;;;2.00;;
15383;SDS011;7790;53.022;12.968;2023-05-10T21:45:36;2.27;;;2.07;;
15383;SDS011;7790;53.022;12.968;2023-05-10T21:49:37;2.07;;;1.97;;
15383;SDS011;7790;53.022;12.968;2023-05-10T21:53:38;1.90;;;1.80;;
15383;SDS011;7790;53.022;12.968;2023-05-10T21:57:39;2.27;;;2.00;;
15383;SDS011;7790;53.022;12.968;2023-05-10T22:01:40;1.80;;;1.70;;
15383;SDS011;7790;53.022;12.968;2023-05-10T22:05:42;3.00;;;1.67;;
15383;SDS011;7790;53.022;12.968;2023-05-10T22:09:43;1.70;;;1.60;;
15383;SDS011;7790;53.022;12.968;2023-05-10T22:13:44;2.10;;;1.90;;
15383;SDS011;7790;53.022;12.968;2023-05-10T22:17:45;2.20;;;2.00;;
15383;SDS011;7790;53.022;12.968;2023-05-10T22:21:46;2.50;;;2.23;;
15383;SDS011;7790;53.022;12.968;2023-05-10T22:25:47;2.63;;;1.90;;
15383;SDS011;7790;53.022;12.968;2023-05-10T22:29:48;2.07;;;1.87;;
15383;SDS011;7790;53.022;12.968;2023-05-10T22:33:48;2.10;;;2.00;;
15383;SDS011;7790;53.022;12.968;2023-05-10T22:37:49;2.30;;;2.10;;
15383;SDS011;7790;53.022;12.968;2023-05-10T22:41:50;2.30;;;2.10;;
15383;SDS011;7790;53.022;12.968;2023-05-10T22:45:51;1.87;;;1.77;;
15383;SDS011;7790;53.022;12.968;2023-05-10T22:49:52;2.53;;;1.60;;
15383;SDS011;7790;53.022;12.968;2023-05-10T22:53:54;2.00;;;1.90;;
15383;SDS011;7790;53.022;12.968;2023-05-10T22:57:55;2.20;;;2.00;;
15383;SDS011;7790;53.022;12.968;2023-05-10T23:01:56;5.00;;;1.93;;
15383;SDS011;7790;53.022;12.968;2023-05-10T23:05:57;2.00;;;1.80;;
15383;SDS011;7790;53.022;12.968;2023-05-10T23:09:57;2.00;;;1.87;;
15383;SDS011;7790;53.022;12.968;2023-05-10T23:13:58;2.17;;;1.90;;
15383;SDS011;7790;53.022;12.968;2023-05-10T23:17:59;7.53;;;2.37;;
15383;SDS011;7790;53.022;12.968;2023-05-10T23:22:00;3.00;;;2.30;;
15383;SDS011;7790;53.022;12.968;2023-05-10T23:26:01;2.10;;;1.90;;
15383;SDS011;7790;53.022;12.968;2023-05-10T23:30:03;3.10;;;2.10;;
15383;SDS011;7790;53.022;12.968;2023-05-10T23:34:04;2.30;;;1.87;;
15383;SDS011;7790;53.022;12.968;2023-05-10T23:38:05;2.73;;;2.23;;
15383;SDS011;7790;53.022;12.968;2023-05-10T23:42:06;1.97;;;1.87;;
15383;SDS011;7790;53.022;12.968;2023-05-10T23:46:07;1.93;;;1.70;;
15383;SDS011;7790;53.022;12.968;2023-05-10T23:50:08;3.60;;;1.87;;
15383;SDS011;7790;53.022;12.968;2023-05-10T23:54:09;3.33;;;1.93;;
15383;SDS011;7790;53.022;12.968;2023-05-10T23:58:11;3.33;;;2.03;;
